createdAt,value
2023-02-27T00:00:57.561Z,101585.75
2023-02-27T00:03:23.940Z,101588.84
2023-02-27T00:05:50.295Z,101609.06
2023-02-27T00:08:16.854Z,101586.47
2023-02-27T00:10:43.187Z,101596.69
2023-02-27T00:13:09.549Z,101596.69
2023-02-27T00:15:35.912Z,101593.19
2023-02-27T00:18:02.231Z,101595.47
2023-02-27T00:20:28.555Z,101584.56
2023-02-27T00:22:54.887Z,101588.06
2023-02-27T00:25:21.188Z,101594.28
2023-02-27T00:27:47.498Z,101595.88
2023-02-27T00:30:13.899Z,101598.97
2023-02-27T00:32:40.219Z,101589.66
2023-02-27T00:35:06.589Z,101596.25
2023-02-27T00:37:32.931Z,101585.78
2023-02-27T00:39:59.243Z,101587.31
2023-02-27T00:42:25.608Z,101582.28
2023-02-27T00:44:51.981Z,101589.69
2023-02-27T00:47:18.458Z,101585.78
2023-02-27T00:49:44.827Z,101574.19
2023-02-27T00:52:11.207Z,101583.13
2023-02-27T00:54:37.530Z,101588.59
2023-02-27T00:57:03.858Z,101594.03
2023-02-27T00:59:30.238Z,101592.81
2023-02-27T01:01:56.659Z,101596.00
2023-02-27T01:04:22.988Z,101593.66
2023-02-27T01:06:49.359Z,101600.66
2023-02-27T01:09:15.824Z,101603.03
2023-02-27T01:11:42.131Z,101608.47
2023-02-27T01:14:08.501Z,101598.78
2023-02-27T01:16:34.863Z,101603.78
2023-02-27T01:19:01.238Z,101605.00
2023-02-27T01:21:27.777Z,101593.34
2023-02-27T01:23:54.263Z,101602.34
2023-02-27T01:26:20.635Z,101602.28
2023-02-27T01:28:46.988Z,101604.56
2023-02-27T01:31:13.349Z,101603.88
2023-02-27T01:33:39.685Z,101603.88
2023-02-27T01:36:06.019Z,101594.50
2023-02-27T01:38:32.373Z,101603.47
2023-02-27T01:40:58.751Z,101599.13
2023-02-27T01:43:25.120Z,101592.97
2023-02-27T01:45:51.572Z,101583.63
2023-02-27T01:48:17.965Z,101599.97
2023-02-27T01:50:44.316Z,101585.56
2023-02-27T01:53:10.720Z,101580.56
2023-02-27T01:55:37.085Z,101584.47
2023-02-27T01:58:03.396Z,101580.88
2023-02-27T02:00:29.733Z,101579.41
2023-02-27T02:02:56.040Z,101577.47
2023-02-27T02:05:22.347Z,101575.84
2023-02-27T02:07:48.656Z,101568.50
2023-02-27T02:10:15.025Z,101570.47
2023-02-27T02:12:41.460Z,101570.47
2023-02-27T02:15:07.808Z,101568.94
2023-02-27T02:17:34.132Z,101571.31
2023-02-27T02:20:00.438Z,101570.91
2023-02-27T02:22:26.817Z,101569.34
2023-02-27T02:24:53.147Z,101567.41
2023-02-27T02:27:19.510Z,101550.72
2023-02-27T02:29:45.814Z,101548.75
2023-02-27T02:32:12.149Z,101557.28
2023-02-27T02:34:38.541Z,101552.69
2023-02-27T02:37:04.922Z,101564.69
2023-02-27T02:39:31.266Z,101560.41
2023-02-27T02:41:57.611Z,101554.19
2023-02-27T02:44:24.093Z,101557.28
2023-02-27T02:46:50.404Z,101561.19
2023-02-27T02:49:16.740Z,101562.81
2023-02-27T02:51:43.102Z,101562.81
2023-02-27T02:54:09.415Z,101551.91
2023-02-27T02:56:35.749Z,101559.38
2023-02-27T02:59:02.067Z,101557.41
2023-02-27T03:01:28.708Z,101551.13
2023-02-27T03:03:55.240Z,101558.97
2023-02-27T03:06:21.595Z,101544.56
2023-02-27T03:08:47.907Z,101550.09
2023-02-27T03:11:14.279Z,101544.22
2023-02-27T03:13:40.613Z,101548.88
2023-02-27T03:16:07.023Z,101555.47
2023-02-27T03:18:33.435Z,101561.75
2023-02-27T03:20:59.831Z,101549.66
2023-02-27T03:23:26.168Z,101559.03
2023-02-27T03:25:52.534Z,101540.72
2023-02-27T03:28:18.893Z,101542.69
2023-02-27T03:30:45.386Z,101559.44
2023-02-27T03:33:11.824Z,101557.50
2023-02-27T03:35:38.136Z,101568.41
2023-02-27T03:38:04.557Z,101562.16
2023-02-27T03:40:30.909Z,101582.41
2023-02-27T03:42:57.272Z,101566.06
2023-02-27T03:45:23.745Z,101573.47
2023-02-27T03:47:50.054Z,101570.00
2023-02-27T03:50:16.351Z,101579.69
2023-02-27T03:52:42.820Z,101568.47
2023-02-27T03:55:09.176Z,101582.84
2023-02-27T03:57:35.483Z,101567.28
2023-02-27T04:00:01.851Z,101570.75
2023-02-27T04:02:28.200Z,101570.75
2023-02-27T04:04:54.530Z,101572.38
2023-02-27T04:07:20.841Z,101582.50
2023-02-27T04:09:47.168Z,101584.88
2023-02-27T04:12:13.533Z,101577.81
2023-02-27T04:14:39.897Z,101584.81
2023-02-27T04:17:06.253Z,101587.94
2023-02-27T04:19:32.597Z,101595.28
2023-02-27T04:21:58.930Z,101589.88
2023-02-27T04:24:25.301Z,101603.94
2023-02-27T04:26:51.746Z,101592.72
2023-02-27T04:29:18.086Z,101593.81
2023-02-27T04:31:44.556Z,101593.06
2023-02-27T04:34:11.011Z,101595.34
2023-02-27T04:36:37.366Z,101597.31
2023-02-27T04:39:03.729Z,101593.06
2023-02-27T04:41:30.056Z,101602.34
2023-02-27T04:43:56.383Z,101600.09
2023-02-27T04:46:22.747Z,101613.34
2023-02-27T04:48:49.095Z,101610.56
2023-02-27T04:51:15.449Z,101609.78
2023-02-27T04:53:41.826Z,101615.69
2023-02-27T04:56:08.203Z,101611.78
2023-02-27T04:58:34.563Z,101618.75
2023-02-27T05:01:00.930Z,101613.72
2023-02-27T05:03:27.335Z,101626.16
2023-02-27T05:05:53.691Z,101623.47
2023-02-27T05:08:20.064Z,101628.53
2023-02-27T05:10:46.419Z,101633.19
2023-02-27T05:13:12.706Z,101632.44
2023-02-27T05:15:39.123Z,101636.28
2023-02-27T05:18:05.560Z,101633.19
2023-02-27T05:20:31.899Z,101637.47
2023-02-27T05:22:58.405Z,101631.25
2023-02-27T05:25:24.716Z,101644.09
2023-02-27T05:27:51.064Z,101630.47
2023-02-27T05:30:17.429Z,101646.03
2023-02-27T05:32:43.748Z,101641.03
2023-02-27T05:35:10.120Z,101637.09
2023-02-27T05:37:36.593Z,101653.44
2023-02-27T05:40:02.914Z,101643.38
2023-02-27T05:42:29.271Z,101641.88
2023-02-27T05:44:55.611Z,101643.38
2023-02-27T05:47:21.920Z,101639.88
2023-02-27T05:49:48.231Z,101643.03
2023-02-27T05:52:14.552Z,101642.63
2023-02-27T05:54:40.863Z,101647.31
2023-02-27T05:57:07.215Z,101639.50
2023-02-27T05:59:33.543Z,101649.59
2023-02-27T06:01:59.967Z,101638.72
2023-02-27T06:04:26.342Z,101646.53
2023-02-27T06:06:52.727Z,101637.16
2023-02-27T06:09:19.045Z,101653.16
2023-02-27T06:11:45.365Z,101656.66
2023-02-27T06:14:11.785Z,101652.41
2023-02-27T06:16:38.235Z,101658.22
2023-02-27T06:19:05.063Z,101651.22
2023-02-27T06:21:31.502Z,101659.72
2023-02-27T06:23:57.893Z,101655.13
2023-02-27T06:26:24.229Z,101666.38
2023-02-27T06:28:51.707Z,101652.06
2023-02-27T06:31:18.093Z,101657.84
2023-02-27T06:33:44.494Z,101660.56
2023-02-27T06:36:10.911Z,101671.00
2023-02-27T06:38:37.284Z,101667.44
2023-02-27T06:41:03.608Z,101671.16
2023-02-27T06:43:29.966Z,101674.28
2023-02-27T06:45:56.359Z,101674.44
2023-02-27T06:48:22.735Z,101688.41
2023-02-27T06:50:49.052Z,101678.97
2023-02-27T06:53:15.379Z,101680.94
2023-02-27T06:55:41.753Z,101688.31
2023-02-27T06:58:08.110Z,101696.91
2023-02-27T07:00:34.426Z,101689.75
2023-02-27T07:03:00.747Z,101692.16
2023-02-27T07:05:27.115Z,101700.13
2023-02-27T07:07:53.430Z,101694.56
2023-02-27T07:10:19.800Z,101695.25
2023-02-27T07:12:46.371Z,101700.97
2023-02-27T07:15:12.746Z,101704.84
2023-02-27T07:17:39.128Z,101706.81
2023-02-27T07:20:05.484Z,101707.19
2023-02-27T07:22:31.792Z,101715.28
2023-02-27T07:24:58.180Z,101712.06
2023-02-27T07:27:24.494Z,101714.34
2023-02-27T07:29:50.910Z,101711.34
2023-02-27T07:32:17.295Z,101704.16
2023-02-27T07:34:43.660Z,101723.47
2023-02-27T07:37:10.046Z,101712.50
2023-02-27T07:39:36.394Z,101718.59
2023-02-27T07:42:02.778Z,101711.13
2023-02-27T07:44:29.157Z,101723.06
2023-02-27T07:46:55.539Z,101716.28
2023-02-27T07:49:21.883Z,101715.03
2023-02-27T07:51:48.195Z,101719.66
2023-02-27T07:54:14.570Z,101722.63
2023-02-27T07:56:40.886Z,101720.00
2023-02-27T07:59:07.188Z,101717.03
2023-02-27T08:01:33.560Z,101720.19
2023-02-27T08:03:59.974Z,101723.19
2023-02-27T08:06:26.555Z,101731.94
2023-02-27T08:08:53.023Z,101728.72
2023-02-27T08:11:19.357Z,101730.13
2023-02-27T08:14:00.042Z,101731.84
2023-02-27T08:16:27.659Z,101736.53
2023-02-27T08:18:54.184Z,101739.34
2023-02-27T08:21:20.556Z,101741.56
2023-02-27T08:23:47.018Z,101740.31
2023-02-27T08:26:13.322Z,101728.56
2023-02-27T08:28:39.675Z,101744.16
2023-02-27T08:31:06.113Z,101733.00
2023-02-27T08:33:32.509Z,101741.97
2023-02-27T08:35:58.937Z,101747.59
2023-02-27T08:38:26.453Z,101736.59
2023-02-27T08:40:52.931Z,101742.34
2023-02-27T08:43:19.247Z,101739.94
2023-02-27T08:45:45.684Z,101740.97
2023-02-27T08:48:12.330Z,101746.09
2023-02-27T08:50:38.646Z,101741.94
2023-02-27T08:53:05.010Z,101738.09
2023-02-27T08:55:31.393Z,101749.63
2023-02-27T08:57:57.781Z,101752.94
2023-02-27T09:00:24.329Z,101754.72
2023-02-27T09:02:50.835Z,101756.28
2023-02-27T09:05:17.162Z,101754.31
2023-02-27T09:07:43.490Z,101753.84
2023-02-27T09:10:09.803Z,101754.94
2023-02-27T09:12:36.100Z,101759.22
2023-02-27T09:15:02.466Z,101763.22
2023-02-27T09:17:28.784Z,101755.25
2023-02-27T09:19:57.320Z,101754.16
2023-02-27T09:22:23.870Z,101757.22
2023-02-27T09:24:50.198Z,101761.69
2023-02-27T09:27:16.548Z,101758.34
2023-02-27T09:29:42.901Z,101761.69
2023-02-27T09:32:09.332Z,101746.28
2023-02-27T09:34:35.760Z,101754.22
2023-02-27T09:37:02.342Z,101746.34
2023-02-27T09:39:28.664Z,101741.16
2023-02-27T09:41:55.016Z,101745.25
2023-02-27T09:44:30.677Z,101755.31
2023-02-27T09:47:02.893Z,101749.25
2023-02-27T09:49:29.249Z,101750.47
2023-02-27T09:51:55.683Z,101743.63
2023-02-27T09:54:22.064Z,101760.84
2023-02-27T09:56:48.367Z,101747.75
2023-02-27T09:59:14.667Z,101758.25
2023-02-27T10:01:41.137Z,101759.03
2023-02-27T10:04:09.425Z,101756.31
2023-02-27T10:06:37.296Z,101747.34
2023-02-27T10:09:03.679Z,101757.03
2023-02-27T10:11:29.983Z,101756.88
2023-02-27T10:13:56.315Z,101757.81
2023-02-27T10:16:22.732Z,101756.72
2023-02-27T10:18:49.119Z,101761.31
2023-02-27T10:21:15.500Z,101758.53
2023-02-27T10:23:41.816Z,101761.59
2023-02-27T10:26:08.126Z,101767.81
2023-02-27T10:28:34.485Z,101770.22
2023-02-27T10:31:00.855Z,101778.44
2023-02-27T10:33:28.351Z,101762.50
2023-02-27T10:35:54.866Z,101767.97
2023-02-27T10:38:21.209Z,101772.75
2023-02-27T10:40:47.539Z,101769.84
2023-02-27T10:43:13.839Z,101774.88
2023-02-27T10:45:40.192Z,101779.41
2023-02-27T10:48:06.532Z,101780.25
2023-02-27T10:50:32.841Z,101774.13
2023-02-27T10:52:59.213Z,101773.44
2023-02-27T10:55:25.570Z,101783.59
2023-02-27T10:57:51.962Z,101771.97
2023-02-27T11:00:18.321Z,101780.88
2023-02-27T11:02:44.710Z,101769.66
2023-02-27T11:05:11.189Z,101766.09
2023-02-27T11:07:37.526Z,101761.38
2023-02-27T11:10:03.856Z,101767.69
2023-02-27T11:12:30.288Z,101758.41
2023-02-27T11:14:56.710Z,101758.81
2023-02-27T11:17:23.110Z,101760.13
2023-02-27T11:19:49.430Z,101745.78
2023-02-27T11:22:15.772Z,101751.56
2023-02-27T11:24:42.100Z,101747.75
2023-02-27T11:27:08.411Z,101748.84
2023-02-27T11:29:34.793Z,101742.28
2023-02-27T11:32:01.207Z,101738.00
2023-02-27T11:34:27.612Z,101734.41
2023-02-27T11:36:53.992Z,101743.78
2023-02-27T11:39:20.446Z,101739.97
2023-02-27T11:41:46.760Z,101736.06
2023-02-27T11:44:13.116Z,101733.31
2023-02-27T11:46:48.122Z,101735.13
2023-02-27T11:49:14.934Z,101735.19
2023-02-27T11:51:41.319Z,101738.19
2023-02-27T11:54:07.683Z,101733.25
2023-02-27T11:56:36.060Z,101721.97
2023-02-27T11:59:02.610Z,101724.78
2023-02-27T12:01:29.282Z,101722.47
2023-02-27T12:03:55.824Z,101730.75
2023-02-27T12:06:22.200Z,101716.94
2023-02-27T12:08:48.533Z,101724.00
2023-02-27T12:11:14.971Z,101715.91
2023-02-27T12:13:41.371Z,101707.97
2023-02-27T12:16:07.746Z,101711.28
2023-02-27T12:18:34.067Z,101715.72
2023-02-27T12:21:00.403Z,101706.84
2023-02-27T12:23:26.706Z,101699.88
2023-02-27T12:25:53.196Z,101710.09
2023-02-27T12:28:19.538Z,101703.69
2023-02-27T12:30:45.894Z,101687.75
2023-02-27T12:33:12.208Z,101696.88
2023-02-27T12:35:38.609Z,101701.72
2023-02-27T12:38:07.252Z,101679.47
2023-02-27T12:40:33.646Z,101683.81
2023-02-27T12:43:00.031Z,101675.53
2023-02-27T12:45:26.425Z,101674.50
2023-02-27T12:47:52.813Z,101684.69
2023-02-27T12:50:19.165Z,101673.66
2023-02-27T12:52:45.505Z,101668.97
2023-02-27T12:55:11.833Z,101668.38
2023-02-27T12:57:38.156Z,101677.47
2023-02-27T13:00:04.530Z,101667.34
2023-02-27T13:02:30.851Z,101657.78
2023-02-27T13:04:57.171Z,101656.84
2023-02-27T13:07:23.471Z,101653.09
2023-02-27T13:09:49.849Z,101652.84
2023-02-27T13:12:16.168Z,101648.56
2023-02-27T13:14:42.473Z,101657.59
2023-02-27T13:17:08.787Z,101654.53
2023-02-27T13:19:35.164Z,101647.53
2023-02-27T13:22:01.553Z,101651.88
2023-02-27T13:24:27.929Z,101640.53
2023-02-27T13:26:54.284Z,101643.31
2023-02-27T13:29:20.711Z,101641.44
2023-02-27T13:31:47.150Z,101633.13
2023-02-27T13:34:13.595Z,101633.13
2023-02-27T13:36:40.103Z,101643.94
2023-02-27T13:39:06.455Z,101632.63
2023-02-27T13:41:35.519Z,101633.03
2023-02-27T13:44:02.350Z,101622.97
2023-02-27T13:46:28.720Z,101630.31
2023-02-27T13:48:55.078Z,101628.00
2023-02-27T13:51:21.582Z,101633.47
2023-02-27T13:53:47.956Z,101631.44
2023-02-27T13:56:14.302Z,101631.84
2023-02-27T13:58:40.692Z,101637.50
2023-02-27T14:01:07.091Z,101629.97
2023-02-27T14:03:33.456Z,101628.06
2023-02-27T14:05:59.822Z,101630.06
2023-02-27T14:08:26.230Z,101634.75
2023-02-27T14:10:52.606Z,101634.22
2023-02-27T14:13:18.949Z,101625.53
2023-02-27T14:15:45.450Z,101631.84
2023-02-27T14:18:22.854Z,101621.78
2023-02-27T14:20:55.346Z,101631.94
2023-02-27T14:23:21.782Z,101621.19
2023-02-27T14:25:48.148Z,101623.25
2023-02-27T14:28:14.549Z,101623.41
2023-02-27T14:30:40.935Z,101617.88
2023-02-27T14:33:08.268Z,101627.34
2023-02-27T14:35:34.697Z,101626.72
2023-02-27T14:38:01.094Z,101630.53
2023-02-27T14:40:29.992Z,101631.94
2023-02-27T14:42:56.907Z,101638.59
2023-02-27T14:45:24.444Z,101631.94
2023-02-27T14:47:51.004Z,101626.47
2023-02-27T14:50:17.389Z,101622.03
2023-02-27T14:52:43.755Z,101631.84
2023-02-27T14:55:10.198Z,101618.34
2023-02-27T14:57:36.620Z,101628.25
2023-02-27T15:00:03.024Z,101629.28
2023-02-27T15:02:29.454Z,101624.53
2023-02-27T15:04:55.878Z,101622.97
2023-02-27T15:07:22.304Z,101613.84
2023-02-27T15:09:48.790Z,101615.56
2023-02-27T15:12:15.251Z,101614.06
2023-02-27T15:14:41.646Z,101621.25
2023-02-27T15:17:07.987Z,101614.38
2023-02-27T15:19:34.330Z,101613.56
2023-02-27T15:22:00.844Z,101611.16
2023-02-27T15:24:31.168Z,101618.88
2023-02-27T15:26:59.500Z,101612.69
2023-02-27T15:29:25.888Z,101613.84
2023-02-27T15:31:52.303Z,101616.06
2023-02-27T15:34:18.722Z,101621.75
2023-02-27T15:36:45.091Z,101624.16
2023-02-27T15:39:11.445Z,101611.78
2023-02-27T15:41:37.785Z,101614.84
2023-02-27T15:44:04.183Z,101621.06
2023-02-27T15:46:30.606Z,101618.88
2023-02-27T15:48:57.025Z,101622.75
2023-02-27T15:51:23.385Z,101616.44
2023-02-27T15:53:49.702Z,101617.88
2023-02-27T15:56:16.090Z,101621.66
2023-02-27T15:58:42.469Z,101626.03
2023-02-27T16:01:08.886Z,101627.31
2023-02-27T16:03:35.271Z,101618.06
2023-02-27T16:06:01.925Z,101628.84
2023-02-27T16:08:28.269Z,101627.44
2023-02-27T16:10:54.716Z,101621.00
2023-02-27T16:13:21.143Z,101626.47
2023-02-27T16:15:47.524Z,101621.44
2023-02-27T16:18:13.937Z,101625.84
2023-02-27T16:20:40.277Z,101632.09
2023-02-27T16:23:06.615Z,101629.44
2023-02-27T16:25:33.010Z,101639.28
2023-02-27T16:27:59.329Z,101638.91
2023-02-27T16:30:25.772Z,101631.50
2023-02-27T16:32:52.114Z,101629.53
2023-02-27T16:35:18.499Z,101644.81
2023-02-27T16:37:44.912Z,101631.34
2023-02-27T16:40:11.306Z,101640.91
2023-02-27T16:42:37.751Z,101639.69
2023-02-27T16:45:04.276Z,101635.94
2023-02-27T16:47:30.735Z,101653.34
2023-02-27T16:49:57.331Z,101648.31
2023-02-27T16:52:23.672Z,101650.03
2023-02-27T16:54:50.087Z,101657.09
2023-02-27T16:57:16.816Z,101658.28
2023-02-27T16:59:43.233Z,101659.38
2023-02-27T17:02:09.606Z,101664.34
2023-02-27T17:04:36.103Z,101658.56
2023-02-27T17:07:04.124Z,101668.72
2023-02-27T17:09:31.796Z,101689.50
2023-02-27T17:11:58.179Z,101681.38
2023-02-27T17:14:24.577Z,101675.19
2023-02-27T17:16:51.026Z,101681.84
2023-02-27T17:19:17.463Z,101679.88
2023-02-27T17:21:43.880Z,101683.78
2023-02-27T17:24:10.262Z,101691.56
2023-02-27T17:26:36.680Z,101689.56
2023-02-27T17:29:03.069Z,101691.19
2023-02-27T17:31:29.477Z,101702.16
2023-02-27T17:33:55.866Z,101704.69
2023-02-27T17:36:22.242Z,101700.78
2023-02-27T17:38:48.581Z,101706.47
2023-02-27T17:41:14.986Z,101704.06
2023-02-27T17:43:41.376Z,101707.94
2023-02-27T17:46:07.797Z,101714.06
2023-02-27T17:48:37.019Z,101713.09
2023-02-27T17:51:03.378Z,101725.34
2023-02-27T17:53:29.820Z,101722.53
2023-02-27T17:55:56.247Z,101730.97
2023-02-27T17:58:22.679Z,101730.72
2023-02-27T18:00:49.005Z,101735.66
2023-02-27T18:03:15.312Z,101738.41
2023-02-27T18:05:41.632Z,101748.03
2023-02-27T18:08:07.997Z,101737.13
2023-02-27T18:10:34.367Z,101746.00
2023-02-27T18:13:00.722Z,101747.97
2023-02-27T18:15:27.183Z,101758.56
2023-02-27T18:17:53.540Z,101745.66
2023-02-27T18:20:19.964Z,101753.84
2023-02-27T18:22:46.365Z,101768.53
2023-02-27T18:25:12.699Z,101759.59
2023-02-27T18:27:39.075Z,101765.81
2023-02-27T18:30:05.478Z,101761.28
2023-02-27T18:32:31.824Z,101756.94
2023-02-27T18:34:58.208Z,101762.47
2023-02-27T18:37:24.560Z,101766.81
2023-02-27T18:39:50.894Z,101762.47
2023-02-27T18:42:17.313Z,101769.28
2023-02-27T18:44:43.741Z,101766.06
2023-02-27T18:47:10.083Z,101768.63
2023-02-27T18:49:36.443Z,101778.88
2023-02-27T18:52:02.764Z,101769.81
2023-02-27T18:54:29.132Z,101776.50
2023-02-27T18:56:55.523Z,101779.66
2023-02-27T18:59:21.834Z,101776.06
2023-02-27T19:01:48.144Z,101777.59
2023-02-27T19:04:14.489Z,101775.13
2023-02-27T19:06:40.937Z,101782.50
2023-02-27T19:09:07.529Z,101788.53
2023-02-27T19:11:33.874Z,101779.84
2023-02-27T19:14:00.221Z,101791.47
2023-02-27T19:16:27.006Z,101794.91
2023-02-27T19:18:53.776Z,101796.00
2023-02-27T19:21:20.154Z,101793.28
2023-02-27T19:23:46.572Z,101785.91
2023-02-27T19:26:12.933Z,101791.31
2023-02-27T19:28:39.303Z,101795.47
2023-02-27T19:31:05.739Z,101790.47
2023-02-27T19:33:32.101Z,101796.69
2023-02-27T19:35:58.424Z,101797.47
2023-02-27T19:38:24.904Z,101797.03
2023-02-27T19:40:51.230Z,101798.81
2023-02-27T19:43:17.633Z,101801.13
2023-02-27T19:45:44.009Z,101802.16
2023-02-27T19:48:10.395Z,101804.47
2023-02-27T19:50:36.820Z,101814.09
2023-02-27T19:53:03.127Z,101821.44
2023-02-27T19:55:29.454Z,101817.09
2023-02-27T19:57:55.876Z,101806.94
2023-02-27T20:00:22.248Z,101809.50
2023-02-27T20:02:48.623Z,101810.25
2023-02-27T20:05:14.986Z,101814.47
2023-02-27T20:07:41.385Z,101817.00
2023-02-27T20:10:07.746Z,101830.22
2023-02-27T20:12:34.171Z,101824.09
2023-02-27T20:15:00.562Z,101829.91
2023-02-27T20:17:26.927Z,101833.06
2023-02-27T20:19:53.297Z,101828.97
2023-02-27T20:22:19.667Z,101829.72
2023-02-27T20:24:46.044Z,101826.13
2023-02-27T20:27:12.380Z,101828.44
2023-02-27T20:29:38.914Z,101827.69
2023-02-27T20:32:05.352Z,101834.66
2023-02-27T20:34:31.732Z,101823.72
2023-02-27T20:36:58.140Z,101837.75
2023-02-27T20:39:24.467Z,101840.50
2023-02-27T20:41:50.784Z,101841.00
2023-02-27T20:44:17.130Z,101831.69
2023-02-27T20:46:43.470Z,101839.66
2023-02-27T20:49:09.808Z,101840.75
2023-02-27T20:51:36.223Z,101842.81
2023-02-27T20:54:02.614Z,101848.28
2023-02-27T20:56:28.974Z,101840.06
2023-02-27T20:58:55.322Z,101835.47
2023-02-27T21:01:21.820Z,101846.03
2023-02-27T21:03:48.340Z,101839.06
2023-02-27T21:06:14.724Z,101848.44
2023-02-27T21:08:41.100Z,101839.56
2023-02-27T21:11:07.434Z,101843.91
2023-02-27T21:13:33.757Z,101845.19
2023-02-27T21:16:00.132Z,101843.69
2023-02-27T21:18:26.486Z,101843.91
2023-02-27T21:20:52.796Z,101853.66
2023-02-27T21:23:19.158Z,101855.63
2023-02-27T21:25:45.483Z,101857.44
2023-02-27T21:28:11.865Z,101852.28
2023-02-27T21:30:38.231Z,101857.44
2023-02-27T21:33:04.632Z,101851.50
2023-02-27T21:35:31.079Z,101858.63
2023-02-27T21:37:57.469Z,101854.78
2023-02-27T21:40:23.814Z,101861.44
2023-02-27T21:42:50.142Z,101853.44
2023-02-27T21:45:16.485Z,101855.69
2023-02-27T21:47:42.845Z,101860.75
2023-02-27T21:50:09.254Z,101859.56
2023-02-27T21:52:35.594Z,101854.94
2023-02-27T21:55:01.927Z,101852.13
2023-02-27T21:57:28.298Z,101859.56
2023-02-27T21:59:54.647Z,101867.88
2023-02-27T22:02:20.997Z,101860.03
2023-02-27T22:04:47.337Z,101862.06
2023-02-27T22:07:13.699Z,101865.16
2023-02-27T22:09:40.062Z,101860.09
2023-02-27T22:12:06.379Z,101867.59
2023-02-27T22:14:32.768Z,101866.50
2023-02-27T22:16:59.136Z,101860.63
2023-02-27T22:19:25.454Z,101862.66
2023-02-27T22:21:51.765Z,101863.06
2023-02-27T22:24:18.140Z,101869.81
2023-02-27T22:26:44.525Z,101867.16
2023-02-27T22:29:10.934Z,101871.22
2023-02-27T22:31:37.362Z,101873.03
2023-02-27T22:34:03.797Z,101874.16
2023-02-27T22:36:30.142Z,101878.56
2023-02-27T22:38:56.449Z,101876.19
2023-02-27T22:41:22.763Z,101877.03
2023-02-27T22:43:49.085Z,101879.84
2023-02-27T22:46:15.497Z,101883.34
2023-02-27T22:48:41.809Z,101875.16
2023-02-27T22:51:08.148Z,101870.94
2023-02-27T22:53:34.487Z,101884.25
2023-02-27T22:56:00.840Z,101871.31
2023-02-27T22:58:27.163Z,101881.53
2023-02-27T23:00:53.566Z,101881.88
2023-02-27T23:03:19.899Z,101881.59
2023-02-27T23:05:46.267Z,101875.97
2023-02-27T23:08:12.684Z,101880.56
2023-02-27T23:10:39.006Z,101875.38
2023-02-27T23:13:05.392Z,101870.34
2023-02-27T23:15:31.829Z,101867.41
2023-02-27T23:17:58.811Z,101867.63
2023-02-27T23:20:25.316Z,101863.50
2023-02-27T23:22:51.637Z,101863.19
2023-02-27T23:25:18.002Z,101860.38
2023-02-27T23:27:44.324Z,101864.41
2023-02-27T23:30:10.657Z,101867.13
2023-02-27T23:32:37.070Z,101874.88
2023-02-27T23:35:03.502Z,101862.53
2023-02-27T23:37:29.857Z,101865.19
2023-02-27T23:39:56.161Z,101872.38
2023-02-27T23:42:22.547Z,101870.34
2023-02-27T23:44:48.919Z,101875.41
2023-02-27T23:47:15.296Z,101881.91
2023-02-27T23:49:41.659Z,101880.16
2023-02-27T23:52:07.972Z,101878.91
2023-02-27T23:54:34.311Z,101882.47
2023-02-27T23:57:00.609Z,101884.91
2023-02-27T23:59:26.917Z,101881.41
